createdAt,value
2022-09-11T00:00:56.715Z,12.35
2022-09-11T00:03:27.175Z,13.70
2022-09-11T00:05:53.849Z,13.20
2022-09-11T00:08:21.432Z,13.60
2022-09-11T00:10:48.738Z,13.48
2022-09-11T00:13:25.382Z,13.77
2022-09-11T00:15:52.223Z,14.13
2022-09-11T00:18:24.006Z,15.98
2022-09-11T00:20:56.290Z,15.13
2022-09-11T00:23:25.604Z,15.27
2022-09-11T00:25:52.655Z,14.18
2022-09-11T00:28:21.921Z,14.88
2022-09-11T00:31:01.180Z,16.35
2022-09-11T00:33:33.422Z,15.77
2022-09-11T00:36:03.924Z,15.73
2022-09-11T00:38:33.038Z,16.00
2022-09-11T00:41:01.558Z,16.92
2022-09-11T00:43:51.934Z,17.50
2022-09-11T00:46:19.809Z,17.23
2022-09-11T00:48:49.760Z,16.70
2022-09-11T00:51:26.406Z,16.60
2022-09-11T00:53:59.202Z,18.30
2022-09-11T00:56:31.307Z,17.65
2022-09-11T00:58:59.249Z,17.73
2022-09-11T01:01:26.042Z,18.80
2022-09-11T01:03:56.844Z,18.52
2022-09-11T01:06:24.454Z,19.30
2022-09-11T01:08:52.541Z,19.13
2022-09-11T01:11:43.164Z,16.58
2022-09-11T01:14:21.797Z,16.52
2022-09-11T01:17:01.344Z,16.50
2022-09-11T01:19:43.597Z,15.60
2022-09-11T01:22:45.935Z,16.05
2022-09-11T01:25:30.020Z,15.60
2022-09-11T01:28:00.804Z,16.92
2022-09-11T01:30:37.525Z,15.70
2022-09-11T01:33:49.126Z,15.95
2022-09-11T01:36:53.714Z,14.93
2022-09-11T01:39:25.320Z,14.35
2022-09-11T01:41:56.357Z,14.35
2022-09-11T01:44:36.678Z,14.32
2022-09-11T01:47:10.667Z,14.27
2022-09-11T01:49:56.061Z,15.05
2022-09-11T01:52:32.004Z,14.35
2022-09-11T01:55:14.407Z,16.17
2022-09-11T01:57:48.178Z,14.50
2022-09-11T02:00:16.221Z,15.63
2022-09-11T02:02:46.962Z,15.82
2022-09-11T02:05:27.758Z,16.40
2022-09-11T02:07:56.643Z,16.30
2022-09-11T02:10:40.352Z,17.08
2022-09-11T02:13:44.197Z,17.17
2022-09-11T02:16:39.843Z,18.33
2022-09-11T02:19:12.338Z,19.23
2022-09-11T02:21:39.588Z,18.63
2022-09-11T02:24:34.714Z,19.20
2022-09-11T02:27:04.718Z,21.50
2022-09-11T02:29:32.802Z,20.10
2022-09-11T02:32:00.796Z,21.33
2022-09-11T02:34:34.257Z,19.42
2022-09-11T02:37:11.038Z,19.63
2022-09-11T02:40:15.523Z,18.55
2022-09-11T02:42:55.238Z,17.73
2022-09-11T02:45:32.530Z,18.35
2022-09-11T02:48:23.984Z,17.83
2022-09-11T02:51:12.250Z,17.92
2022-09-11T02:54:04.130Z,18.77
2022-09-11T02:56:34.081Z,17.20
2022-09-11T02:59:07.329Z,17.48
2022-09-11T03:01:53.126Z,16.85
2022-09-11T03:04:24.638Z,17.92
2022-09-11T03:06:53.632Z,16.80
2022-09-11T03:09:20.846Z,17.33
2022-09-11T03:11:51.150Z,17.40
2022-09-11T03:14:19.435Z,17.30
2022-09-11T03:16:46.806Z,16.00
2022-09-11T03:19:14.164Z,16.35
2022-09-11T03:21:40.619Z,14.98
2022-09-11T03:24:13.102Z,17.02
2022-09-11T03:26:39.759Z,16.80
2022-09-11T03:29:06.798Z,15.70
2022-09-11T03:31:37.364Z,17.25
2022-09-11T03:34:10.408Z,15.98
2022-09-11T03:36:37.168Z,17.20
2022-09-11T03:39:05.239Z,16.83
2022-09-11T03:41:32.585Z,16.05
2022-09-11T03:44:00.822Z,14.70
2022-09-11T03:46:28.887Z,15.85
2022-09-11T03:48:55.463Z,15.65
2022-09-11T03:51:21.942Z,14.35
2022-09-11T03:53:49.506Z,15.15
2022-09-11T03:56:16.241Z,13.68
2022-09-11T03:58:48.035Z,15.43
2022-09-11T04:01:16.078Z,18.05
2022-09-11T04:03:47.446Z,21.10
2022-09-11T04:06:26.715Z,19.00
2022-09-11T04:08:54.705Z,16.48
2022-09-11T04:11:22.514Z,17.60
2022-09-11T04:13:54.695Z,15.27
2022-09-11T04:16:24.653Z,14.90
2022-09-11T04:18:54.290Z,13.40
2022-09-11T04:21:21.302Z,13.60
2022-09-11T04:24:00.298Z,14.35
2022-09-11T04:26:31.257Z,16.95
2022-09-11T04:29:05.357Z,14.60
2022-09-11T04:31:34.398Z,15.45
2022-09-11T04:34:01.491Z,14.35
2022-09-11T04:36:32.038Z,15.02
2022-09-11T04:39:00.094Z,15.77
2022-09-11T04:41:28.506Z,15.68
2022-09-11T04:44:22.232Z,15.27
2022-09-11T04:46:48.678Z,13.85
2022-09-11T04:49:15.551Z,14.00
2022-09-11T04:51:45.171Z,15.00
2022-09-11T04:54:21.286Z,14.43
2022-09-11T04:56:48.879Z,14.85
2022-09-11T04:59:20.216Z,15.68
2022-09-11T05:01:55.161Z,15.10
2022-09-11T05:04:26.961Z,15.57
2022-09-11T05:06:55.069Z,15.50
2022-09-11T05:09:22.262Z,16.02
2022-09-11T05:11:48.875Z,16.13
2022-09-11T05:14:20.656Z,17.50
2022-09-11T05:16:50.045Z,16.77
2022-09-11T05:19:19.038Z,16.75
2022-09-11T05:21:46.188Z,18.40
2022-09-11T05:24:17.310Z,17.40
2022-09-11T05:26:43.816Z,18.58
2022-09-11T05:29:14.847Z,17.08
2022-09-11T05:32:07.460Z,18.38
2022-09-11T05:34:35.339Z,17.33
2022-09-11T05:37:02.368Z,18.13
2022-09-11T05:39:32.446Z,19.80
2022-09-11T05:42:01.542Z,15.32
2022-09-11T05:44:37.060Z,17.08
2022-09-11T05:47:04.754Z,15.98
2022-09-11T05:49:31.850Z,17.77
2022-09-11T05:51:59.917Z,19.88
2022-09-11T05:54:30.265Z,18.27
2022-09-11T05:56:59.125Z,17.50
2022-09-11T05:59:27.117Z,17.20
2022-09-11T06:01:54.240Z,17.65
2022-09-11T06:04:33.334Z,17.75
2022-09-11T06:07:00.165Z,18.60
2022-09-11T06:09:28.126Z,16.33
2022-09-11T06:11:54.757Z,16.15
2022-09-11T06:14:25.121Z,16.70
2022-09-11T06:16:51.677Z,16.50
2022-09-11T06:19:19.078Z,16.45
2022-09-11T06:21:46.250Z,16.20
2022-09-11T06:24:28.313Z,16.17
2022-09-11T06:26:56.237Z,16.05
2022-09-11T06:29:24.099Z,16.92
2022-09-11T06:31:51.619Z,16.83
2022-09-11T06:34:23.282Z,15.82
2022-09-11T06:36:52.392Z,15.00
2022-09-11T06:39:22.686Z,16.08
2022-09-11T06:41:50.263Z,15.20
2022-09-11T06:44:21.662Z,16.08
2022-09-11T06:46:48.137Z,15.57
2022-09-11T06:49:14.603Z,15.90
2022-09-11T06:51:59.606Z,16.92
2022-09-11T06:54:31.815Z,14.98
2022-09-11T06:57:02.469Z,20.85
2022-09-11T06:59:28.927Z,17.58
2022-09-11T07:01:55.911Z,19.60
2022-09-11T07:04:23.358Z,16.00
2022-09-11T07:06:50.418Z,16.60
2022-09-11T07:09:17.411Z,16.15
2022-09-11T07:11:50.091Z,19.08
2022-09-11T07:14:21.429Z,18.30
2022-09-11T07:16:52.822Z,15.60
2022-09-11T07:19:19.434Z,16.40
2022-09-11T07:21:45.922Z,24.48
2022-09-11T07:24:17.366Z,18.73
2022-09-11T07:26:44.501Z,22.38
2022-09-11T07:29:18.394Z,23.83
2022-09-11T07:31:50.070Z,17.88
2022-09-11T07:34:18.274Z,22.17
2022-09-11T07:36:45.581Z,21.90
2022-09-11T07:39:12.746Z,16.42
2022-09-11T07:41:49.296Z,18.55
2022-09-11T07:44:25.837Z,17.65
2022-09-11T07:46:53.002Z,17.55
2022-09-11T07:49:21.505Z,18.67
2022-09-11T07:51:48.387Z,19.42
2022-09-11T07:54:21.770Z,18.90
2022-09-11T07:56:48.706Z,19.55
2022-09-11T07:59:18.203Z,20.45
2022-09-11T08:01:47.850Z,20.92
2022-09-11T08:04:16.668Z,22.27
2022-09-11T08:06:43.951Z,21.30
2022-09-11T08:09:20.294Z,20.85
2022-09-11T08:11:55.606Z,20.88
2022-09-11T08:14:27.274Z,21.67
2022-09-11T08:16:57.282Z,21.95
2022-09-11T08:19:26.697Z,21.73
2022-09-11T08:21:56.235Z,21.95
2022-09-11T08:24:24.421Z,21.95
2022-09-11T08:26:55.225Z,22.38
2022-09-11T08:29:21.970Z,23.10
2022-09-11T08:31:48.811Z,22.83
2022-09-11T08:34:22.204Z,23.00
2022-09-11T08:36:50.873Z,23.20
2022-09-11T08:39:17.875Z,21.55
2022-09-11T08:41:53.482Z,22.23
2022-09-11T08:44:38.518Z,22.15
2022-09-11T08:47:31.036Z,21.10
2022-09-11T08:50:08.913Z,23.02
2022-09-11T08:52:36.725Z,23.25
2022-09-11T08:55:17.130Z,23.23
2022-09-11T08:57:54.898Z,23.48
2022-09-11T09:00:38.277Z,25.70
2022-09-11T09:03:40.117Z,25.20
2022-09-11T09:06:21.548Z,26.30
2022-09-11T09:09:13.939Z,26.08
2022-09-11T09:11:50.836Z,28.55
2022-09-11T09:14:47.462Z,31.83
2022-09-11T09:17:14.394Z,29.77
2022-09-11T09:19:50.021Z,34.22
2022-09-11T09:22:26.532Z,33.05
2022-09-11T09:25:01.229Z,34.20
2022-09-11T09:27:37.110Z,34.67
2022-09-11T09:30:07.501Z,35.83
2022-09-11T09:32:51.366Z,37.90
2022-09-11T09:35:39.354Z,34.15
2022-09-11T09:38:18.668Z,32.47
2022-09-11T09:40:59.813Z,34.40
2022-09-11T09:44:08.804Z,33.25
2022-09-11T09:46:41.711Z,34.42
2022-09-11T09:49:17.145Z,36.90
2022-09-11T09:51:43.755Z,35.47
2022-09-11T09:54:26.629Z,33.85
2022-09-11T09:57:02.497Z,33.90
2022-09-11T09:59:43.385Z,29.55
2022-09-11T10:02:09.862Z,29.88
2022-09-11T10:04:40.639Z,29.40
2022-09-11T10:07:10.510Z,26.88
2022-09-11T10:09:46.764Z,26.92
2022-09-11T10:12:21.652Z,25.48
2022-09-11T10:15:01.279Z,26.88
2022-09-11T10:17:31.894Z,26.38
2022-09-11T10:20:23.099Z,39.30
2022-09-11T10:22:51.185Z,26.70
2022-09-11T10:25:26.526Z,28.25
2022-09-11T10:28:14.532Z,26.63
2022-09-11T10:31:00.504Z,25.20
2022-09-11T10:33:37.102Z,24.20
2022-09-11T10:36:07.942Z,24.20
2022-09-11T10:38:46.511Z,25.48
2022-09-11T10:41:13.178Z,24.83
2022-09-11T10:44:00.336Z,24.55
2022-09-11T10:46:39.427Z,23.55
2022-09-11T10:49:05.828Z,22.40
2022-09-11T10:51:35.203Z,23.75
2022-09-11T10:54:16.946Z,25.10
2022-09-11T10:57:09.504Z,23.77
2022-09-11T10:59:49.937Z,23.35
2022-09-11T11:02:20.651Z,22.20
2022-09-11T11:04:52.177Z,22.77
2022-09-11T11:07:36.291Z,22.92
2022-09-11T11:10:13.117Z,23.10
2022-09-11T11:13:06.439Z,22.48
2022-09-11T11:15:53.058Z,20.75
2022-09-11T11:18:31.380Z,20.08
2022-09-11T11:21:32.760Z,19.40
2022-09-11T11:24:17.607Z,19.38
2022-09-11T11:26:44.059Z,19.60
2022-09-11T11:29:16.152Z,20.33
2022-09-11T11:32:15.854Z,19.33
2022-09-11T11:35:01.137Z,19.20
2022-09-11T11:37:34.063Z,21.17
2022-09-11T11:40:19.700Z,21.17
2022-09-11T11:42:56.113Z,20.55
2022-09-11T11:45:32.354Z,18.75
2022-09-11T11:48:02.146Z,20.00
2022-09-11T11:50:52.664Z,20.17
2022-09-11T11:53:48.621Z,19.73
2022-09-11T11:59:13.470Z,18.50
2022-09-11T12:02:25.990Z,17.73
2022-09-11T12:05:02.120Z,16.85
2022-09-11T12:07:34.165Z,16.38
2022-09-11T12:10:02.879Z,13.85
2022-09-11T12:12:33.840Z,15.52
2022-09-11T12:15:08.181Z,16.33
2022-09-11T12:17:40.126Z,15.18
2022-09-11T12:20:09.469Z,14.68
2022-09-11T12:22:48.558Z,14.48
2022-09-11T12:25:20.942Z,13.65
2022-09-11T12:27:48.790Z,14.00
2022-09-11T12:30:18.300Z,12.18
2022-09-11T12:32:49.797Z,12.38
2022-09-11T12:35:34.876Z,11.48
2022-09-11T12:38:19.842Z,11.68
2022-09-11T12:41:07.338Z,11.40
2022-09-11T12:43:37.252Z,11.85
2022-09-11T12:46:10.218Z,11.50
2022-09-11T12:48:56.249Z,10.63
2022-09-11T12:51:39.047Z,11.18
2022-09-11T12:54:21.880Z,11.18
2022-09-11T12:56:59.250Z,10.73
2022-09-11T12:59:51.539Z,11.00
2022-09-11T13:02:36.589Z,11.02
2022-09-11T13:05:06.171Z,9.85
2022-09-11T13:07:43.003Z,11.18
2022-09-11T13:10:25.864Z,9.50
2022-09-11T13:12:55.768Z,9.18
2022-09-11T13:15:38.763Z,7.38
2022-09-11T13:18:37.590Z,7.50
2022-09-11T13:21:10.578Z,7.78
2022-09-11T13:23:44.759Z,8.68
2022-09-11T13:26:26.176Z,9.77
2022-09-11T13:28:56.228Z,9.13
2022-09-11T13:31:33.531Z,8.60
2022-09-11T13:34:11.941Z,9.45
2022-09-11T13:36:39.498Z,9.27
2022-09-11T13:39:07.981Z,8.82
2022-09-11T13:41:39.950Z,9.10
2022-09-11T13:44:30.205Z,9.55
2022-09-11T13:46:56.839Z,9.20
2022-09-11T13:49:38.923Z,8.95
2022-09-11T13:52:06.529Z,9.40
2022-09-11T13:55:10.844Z,9.00
2022-09-11T13:57:54.633Z,8.35
2022-09-11T14:00:39.534Z,8.23
2022-09-11T14:03:16.724Z,9.10
2022-09-11T14:05:53.898Z,8.48
2022-09-11T14:08:27.082Z,7.75
2022-09-11T14:10:56.823Z,7.55
2022-09-11T14:13:26.149Z,8.40
2022-09-11T14:15:56.753Z,8.88
2022-09-11T14:18:29.093Z,8.50
2022-09-11T14:20:59.224Z,7.57
2022-09-11T14:23:31.218Z,7.13
2022-09-11T14:26:08.287Z,6.80
2022-09-11T14:28:47.885Z,8.13
2022-09-11T14:31:28.486Z,7.22
2022-09-11T14:34:18.233Z,6.90
2022-09-11T14:36:49.975Z,6.55
2022-09-11T14:39:42.307Z,7.90
2022-09-11T14:42:18.282Z,6.63
2022-09-11T14:44:44.962Z,7.45
2022-09-11T14:47:26.050Z,7.07
2022-09-11T14:49:54.488Z,7.20
2022-09-11T14:52:29.316Z,7.53
2022-09-11T14:54:57.031Z,7.25
2022-09-11T14:57:26.983Z,6.65
2022-09-11T14:59:53.481Z,6.90
2022-09-11T15:02:23.359Z,7.47
2022-09-11T15:04:56.490Z,7.47
2022-09-11T15:07:24.155Z,6.53
2022-09-11T15:09:52.485Z,6.22
2022-09-11T15:12:19.288Z,5.80
2022-09-11T15:14:57.092Z,6.57
2022-09-11T15:17:25.139Z,6.32
2022-09-11T15:19:52.600Z,5.97
2022-09-11T15:22:19.381Z,6.65
2022-09-11T15:24:46.642Z,5.85
2022-09-11T15:27:13.094Z,5.57
2022-09-11T15:29:40.597Z,5.78
2022-09-11T15:32:07.865Z,5.90
2022-09-11T15:34:35.800Z,6.63
2022-09-11T15:37:02.556Z,6.47
2022-09-11T15:39:29.064Z,6.75
2022-09-11T15:41:56.212Z,5.85
2022-09-11T15:44:28.595Z,5.70
2022-09-11T15:46:56.854Z,6.93
2022-09-11T15:49:24.024Z,6.35
2022-09-11T15:51:52.328Z,5.70
2022-09-11T15:54:20.532Z,6.55
2022-09-11T15:56:47.189Z,6.25
2022-09-11T15:59:17.955Z,6.05
2022-09-11T16:01:44.979Z,6.28
2022-09-11T16:04:36.594Z,7.13
2022-09-11T16:07:03.453Z,6.22
2022-09-11T16:09:31.592Z,6.30
2022-09-11T16:12:00.185Z,6.85
2022-09-11T16:14:31.011Z,5.88
2022-09-11T16:16:58.415Z,5.90
2022-09-11T16:19:27.764Z,6.35
2022-09-11T16:21:56.926Z,6.32
2022-09-11T16:24:25.875Z,5.60
2022-09-11T16:26:56.346Z,5.75
2022-09-11T16:29:25.573Z,5.53
2022-09-11T16:31:52.269Z,5.65
2022-09-11T16:34:23.553Z,6.45
2022-09-11T16:36:50.196Z,6.65
2022-09-11T16:39:21.696Z,7.10
2022-09-11T16:41:48.541Z,6.20
2022-09-11T16:44:19.739Z,6.65
2022-09-11T16:46:46.422Z,6.85
2022-09-11T16:49:17.627Z,7.22
2022-09-11T16:51:45.732Z,7.15
2022-09-11T16:54:14.748Z,7.38
2022-09-11T16:56:45.880Z,8.10
2022-09-11T16:59:12.760Z,8.55
2022-09-11T17:01:39.678Z,8.38
2022-09-11T17:04:07.287Z,7.88
2022-09-11T17:06:33.881Z,7.35
2022-09-11T17:09:04.050Z,7.85
2022-09-11T17:11:32.373Z,7.90
2022-09-11T17:14:03.393Z,7.22
2022-09-11T17:16:32.136Z,6.82
2022-09-11T17:18:59.824Z,6.55
2022-09-11T17:21:26.853Z,6.50
2022-09-11T17:23:57.246Z,6.97
2022-09-11T17:26:24.111Z,7.28
2022-09-11T17:28:51.831Z,6.55
2022-09-11T17:31:19.440Z,7.10
2022-09-11T17:33:49.659Z,7.60
2022-09-11T17:36:19.040Z,7.50
2022-09-11T17:38:48.197Z,7.43
2022-09-11T17:41:15.635Z,8.13
2022-09-11T17:43:48.091Z,8.27
2022-09-11T17:46:17.352Z,8.68
2022-09-11T17:48:44.191Z,8.65
2022-09-11T17:51:13.639Z,9.20
2022-09-11T17:53:42.489Z,8.52
2022-09-11T17:56:11.878Z,8.90
2022-09-11T17:58:38.578Z,8.93
2022-09-11T18:01:06.071Z,8.57
2022-09-11T18:03:36.230Z,8.85
2022-09-11T18:06:15.602Z,8.88
2022-09-11T18:08:42.252Z,8.82
2022-09-11T18:11:09.435Z,9.40
2022-09-11T18:13:37.858Z,8.50
2022-09-11T18:16:07.432Z,9.00
2022-09-11T18:18:36.077Z,9.55
2022-09-11T18:21:08.862Z,9.20
2022-09-11T18:23:42.413Z,9.20
2022-09-11T18:26:23.426Z,9.57
2022-09-11T18:28:50.638Z,8.05
2022-09-11T18:31:17.198Z,7.55
2022-09-11T18:33:53.150Z,7.28
2022-09-11T18:36:20.766Z,7.47
2022-09-11T18:39:00.022Z,7.40
2022-09-11T18:41:28.118Z,7.45
2022-09-11T18:44:00.825Z,7.97
2022-09-11T18:46:27.883Z,7.97
2022-09-11T18:48:55.808Z,7.55
2022-09-11T18:51:22.366Z,8.02
2022-09-11T18:53:54.487Z,7.85
2022-09-11T18:56:23.645Z,8.05
2022-09-11T18:58:52.129Z,10.05
2022-09-11T19:01:21.135Z,8.43
2022-09-11T19:03:53.337Z,8.60
2022-09-11T19:06:22.294Z,9.23
2022-09-11T19:08:49.012Z,9.20
2022-09-11T19:11:18.706Z,9.00
2022-09-11T19:13:48.590Z,9.45
2022-09-11T19:16:16.633Z,9.95
2022-09-11T19:18:43.326Z,10.20
2022-09-11T19:21:22.252Z,9.85
2022-09-11T19:24:00.156Z,9.50
2022-09-11T19:26:37.529Z,10.75
2022-09-11T19:29:04.516Z,10.52
2022-09-11T19:31:31.992Z,10.60
2022-09-11T19:34:01.561Z,11.05
2022-09-11T19:36:30.945Z,11.32
2022-09-11T19:39:00.504Z,11.48
2022-09-11T19:41:33.478Z,11.52
2022-09-11T19:44:02.956Z,11.18
2022-09-11T19:46:31.525Z,12.45
2022-09-11T19:49:00.803Z,12.48
2022-09-11T19:51:30.737Z,12.45
2022-09-11T19:54:02.784Z,10.90
2022-09-11T19:56:31.483Z,11.65
2022-09-11T19:58:58.028Z,11.98
2022-09-11T20:01:25.844Z,10.48
2022-09-11T20:03:57.581Z,11.18
2022-09-11T20:06:26.535Z,10.02
2022-09-11T20:09:07.940Z,10.90
2022-09-11T20:11:40.354Z,9.95
2022-09-11T20:14:32.598Z,10.27
2022-09-11T20:17:00.905Z,10.68
2022-09-11T20:19:28.038Z,11.10
2022-09-11T20:21:54.473Z,11.02
2022-09-11T20:24:22.881Z,11.98
2022-09-11T20:26:50.190Z,11.80
2022-09-11T20:29:16.684Z,11.80
2022-09-11T20:31:48.836Z,11.98
2022-09-11T20:34:19.683Z,12.45
2022-09-11T20:36:46.703Z,13.02
2022-09-11T20:39:14.028Z,12.90
2022-09-11T20:41:40.692Z,12.73
2022-09-11T20:44:11.938Z,14.43
2022-09-11T20:46:38.505Z,14.63
2022-09-11T20:49:05.494Z,15.10
2022-09-11T20:51:32.937Z,15.35
2022-09-11T20:54:05.529Z,16.42
2022-09-11T20:56:32.009Z,16.73
2022-09-11T20:59:00.022Z,16.50
2022-09-11T21:01:29.817Z,15.40
2022-09-11T21:04:00.428Z,15.95
2022-09-11T21:06:32.895Z,15.05
2022-09-11T21:09:02.650Z,15.20
2022-09-11T21:11:30.033Z,15.15
2022-09-11T21:13:56.549Z,15.00
2022-09-11T21:16:23.241Z,14.90
2022-09-11T21:18:52.710Z,15.48
2022-09-11T21:21:20.802Z,16.33
2022-09-11T21:23:56.179Z,15.73
2022-09-11T21:28:49.280Z,14.40
2022-09-11T21:31:15.764Z,15.10
2022-09-11T21:33:45.762Z,13.98
2022-09-11T21:36:12.369Z,14.95
2022-09-11T21:38:39.278Z,14.02
2022-09-11T21:41:08.711Z,15.02
2022-09-11T21:43:40.065Z,14.70
2022-09-11T21:46:08.743Z,13.65
2022-09-11T21:48:36.896Z,14.20
2022-09-11T21:51:06.499Z,14.27
2022-09-11T21:53:38.312Z,14.40
2022-09-11T21:56:05.348Z,15.05
2022-09-11T21:58:32.310Z,15.25
2022-09-11T22:01:08.121Z,13.98
2022-09-11T22:03:36.676Z,13.98
2022-09-11T22:06:10.627Z,14.85
2022-09-11T22:08:39.769Z,13.93
2022-09-11T22:11:07.247Z,14.93
2022-09-11T22:13:36.388Z,14.13
2022-09-11T22:16:05.604Z,13.68
2022-09-11T22:18:32.518Z,13.65
2022-09-11T22:21:01.223Z,14.13
2022-09-11T22:23:30.990Z,13.82
2022-09-11T22:26:05.766Z,14.50
2022-09-11T22:28:32.319Z,12.13
2022-09-11T22:30:58.771Z,11.57
2022-09-11T22:33:27.134Z,11.07
2022-09-11T22:35:53.559Z,13.18
2022-09-11T22:38:20.066Z,12.77
2022-09-11T22:40:52.309Z,11.60
2022-09-11T22:43:19.242Z,12.88
2022-09-11T22:45:51.003Z,13.88
2022-09-11T22:48:17.794Z,13.68
2022-09-11T22:50:44.607Z,15.10
2022-09-11T22:53:11.057Z,14.57
2022-09-11T22:55:43.862Z,14.90
2022-09-11T22:58:10.550Z,15.07
2022-09-11T23:00:37.271Z,13.88
2022-09-11T23:03:03.889Z,15.52
2022-09-11T23:05:49.034Z,14.10
2022-09-11T23:08:15.786Z,14.60
2022-09-11T23:10:43.860Z,14.30
2022-09-11T23:13:10.653Z,12.77
2022-09-11T23:15:41.926Z,12.80
2022-09-11T23:18:09.125Z,12.50
2022-09-11T23:20:35.620Z,13.13
2022-09-11T23:23:03.405Z,13.20
2022-09-11T23:25:31.609Z,12.88
2022-09-11T23:27:58.076Z,13.10
2022-09-11T23:30:24.556Z,12.90
2022-09-11T23:32:53.154Z,12.82
2022-09-11T23:35:19.627Z,13.57
2022-09-11T23:37:46.060Z,13.60
2022-09-11T23:40:12.654Z,12.25
2022-09-11T23:42:39.134Z,13.00
2022-09-11T23:45:07.498Z,12.70
2022-09-11T23:47:33.928Z,11.98
2022-09-11T23:50:00.630Z,11.35
2022-09-11T23:52:27.058Z,10.38
2022-09-11T23:54:57.451Z,11.13
2022-09-11T23:57:23.936Z,11.30
2022-09-11T23:59:50.361Z,9.70
